Time;durP1;ratioP1;P1;durP2;ratioP2;P2;SDS_P1;SDS_P2;PMS_P1;PMS_P2;Temp;Humidity;BMP_temperature;BMP_pressure;BME280_temperature;BME280_humidity;BME280_pressure;Samples;Min_cycle;Max_cycle;Signal;HPM_P1;HPM_P2
2024/04/03 00:00:52;;;;;;;7.25;3.25;;;5.20;100.00;;;;;;5069533;28;20753;-80
2024/04/03 00:03:19;;;;;;;7.95;3.45;;;5.20;100.00;;;;;;5068871;28;20047;-80
2024/04/03 00:05:45;;;;;;;7.90;3.75;;;5.20;100.00;;;;;;5086922;28;20040;-79
2024/04/03 00:08:11;;;;;;;11.70;3.25;;;5.20;100.00;;;;;;5087167;28;20063;-80
2024/04/03 00:10:37;;;;;;;7.00;3.20;;;5.20;100.00;;;;;;5071874;28;20039;-80
2024/04/03 00:13:03;;;;;;;7.07;3.38;;;5.10;100.00;;;;;;5072561;28;20063;-80
2024/04/03 00:15:29;;;;;;;7.20;3.60;;;5.10;100.00;;;;;;5086863;28;20051;-80
2024/04/03 00:17:55;;;;;;;9.68;4.05;;;5.10;100.00;;;;;;5070476;28;20048;-80
2024/04/03 00:20:23;;;;;;;8.13;4.00;;;5.10;100.00;;;;;;5087094;28;20627;-80
2024/04/03 00:22:50;;;;;;;9.85;4.25;;;5.10;100.00;;;;;;5069694;28;20153;-79
2024/04/03 00:25:17;;;;;;;11.32;4.22;;;5.10;100.00;;;;;;5083661;28;20063;-80
2024/04/03 00:27:43;;;;;;;9.73;4.40;;;5.00;100.00;;;;;;5079090;28;20060;-79
2024/04/03 00:30:09;;;;;;;12.18;5.05;;;5.00;100.00;;;;;;5086789;28;20086;-79
2024/04/03 00:32:35;;;;;;;10.52;4.28;;;5.00;100.00;;;;;;5083618;28;20648;-79
2024/04/03 00:35:01;;;;;;;12.63;4.47;;;4.90;100.00;;;;;;5073427;28;20048;-79
2024/04/03 00:37:29;;;;;;;18.40;4.40;;;4.90;100.00;;;;;;5068438;28;20082;-79
2024/04/03 00:39:56;;;;;;;9.43;4.05;;;4.80;100.00;;;;;;5085732;28;20059;-80
2024/04/03 00:42:24;;;;;;;5.80;3.00;;;4.70;100.00;;;;;;5069070;28;20055;-80
2024/04/03 00:44:50;;;;;;;10.73;3.72;;;4.70;100.00;;;;;;5069393;28;20637;-79
2024/04/03 00:47:17;;;;;;;7.03;3.80;;;4.60;100.00;;;;;;5068546;28;20051;-79
2024/04/03 00:49:44;;;;;;;10.77;3.83;;;4.60;100.00;;;;;;5085312;28;20041;-79
2024/04/03 00:52:14;;;;;;;13.50;3.95;;;4.60;100.00;;;;;;5090348;28;20394;-79
2024/04/03 00:54:45;;;;;;;7.80;4.00;;;4.50;100.00;;;;;;5082712;28;20048;-80
2024/04/03 00:57:13;;;;;;;14.57;5.78;;;4.50;100.00;;;;;;5086092;28;20429;-79
2024/04/03 00:59:40;;;;;;;13.30;4.32;;;4.50;100.00;;;;;;5082630;28;20052;-79
2024/04/03 01:02:07;;;;;;;7.35;4.10;;;4.50;100.00;;;;;;5064572;28;20071;-79
2024/04/03 01:04:33;;;;;;;6.68;3.58;;;4.50;100.00;;;;;;5099420;27;20062;-79
2024/04/03 01:07:09;;;;;;;10.13;4.53;;;4.40;100.00;;;;;;5101249;28;20052;-79
2024/04/03 01:09:35;;;;;;;8.50;3.97;;;4.40;100.00;;;;;;5060544;28;20089;-79
2024/04/03 01:12:02;;;;;;;8.73;3.97;;;4.50;100.00;;;;;;5074489;28;20052;-79
2024/04/03 01:14:28;;;;;;;9.32;4.07;;;4.40;100.00;;;;;;5083826;28;20051;-79
2024/04/03 01:16:54;;;;;;;8.25;3.78;;;4.30;100.00;;;;;;5084279;28;20048;-79
2024/04/03 01:19:20;;;;;;;8.68;4.00;;;4.30;100.00;;;;;;5067902;28;20044;-79
2024/04/03 01:21:46;;;;;;;11.63;4.63;;;4.30;100.00;;;;;;5084523;28;20768;-79
2024/04/03 01:24:11;;;;;;;7.93;3.97;;;4.20;100.00;;;;;;5067468;28;20063;-79
2024/04/03 01:26:37;;;;;;;8.32;4.32;;;4.20;100.00;;;;;;5066185;28;20055;-79
2024/04/03 01:29:03;;;;;;;10.27;4.18;;;4.20;100.00;;;;;;5059199;28;20093;-73
2024/04/03 01:31:29;;;;;;;7.40;4.03;;;4.20;100.00;;;;;;5077259;28;20456;-73
2024/04/03 01:33:55;;;;;;;10.43;4.40;;;4.20;100.00;;;;;;5082045;28;20454;-73
2024/04/03 01:36:21;;;;;;;13.75;3.95;;;4.20;100.00;;;;;;5082584;28;20055;-73
2024/04/03 01:38:46;;;;;;;7.68;3.25;;;4.20;100.00;;;;;;5081151;28;20040;-72
2024/04/03 01:41:13;;;;;;;8.32;3.45;;;4.20;100.00;;;;;;5075692;28;20055;-73
2024/04/03 01:43:40;;;;;;;11.10;3.55;;;4.20;100.00;;;;;;5078560;28;20374;-73
2024/04/03 01:46:05;;;;;;;6.15;2.80;;;4.20;100.00;;;;;;5080690;28;20446;-73
2024/04/03 01:48:31;;;;;;;6.88;3.15;;;4.10;100.00;;;;;;5073052;28;20137;-73
2024/04/03 01:50:57;;;;;;;5.95;3.15;;;4.10;100.00;;;;;;5083370;28;20048;-74
2024/04/03 01:53:23;;;;;;;8.02;3.25;;;4.10;100.00;;;;;;5078883;28;20058;-73
2024/04/03 01:55:57;;;;;;;7.07;3.03;;;4.10;100.00;;;;;;5079091;28;20396;-73
2024/04/03 01:58:24;;;;;;;11.68;4.28;;;4.10;100.00;;;;;;5063156;28;20044;-73
2024/04/03 02:00:51;;;;;;;7.97;3.60;;;4.00;100.00;;;;;;5077467;28;20048;-73
2024/04/03 02:03:18;;;;;;;8.32;3.15;;;4.00;100.00;;;;;;5061384;28;20728;-73
2024/04/03 02:05:44;;;;;;;9.65;3.92;;;4.00;100.00;;;;;;5072076;28;20516;-73
2024/04/03 02:08:12;;;;;;;6.80;3.58;;;4.00;100.00;;;;;;5080641;28;20064;-73
2024/04/03 02:10:38;;;;;;;7.40;3.33;;;4.00;100.00;;;;;;5063405;28;20044;-73
2024/04/03 02:13:04;;;;;;;7.15;3.47;;;4.00;100.00;;;;;;5059854;28;20070;-73
2024/04/03 02:15:30;;;;;;;8.95;3.95;;;4.00;100.00;;;;;;5081023;28;20052;-73
2024/04/03 02:17:56;;;;;;;6.38;3.05;;;4.00;100.00;;;;;;5115577;27;20132;-73
2024/04/03 02:20:22;;;;;;;7.95;3.80;;;4.00;100.00;;;;;;5081373;28;20063;-73
2024/04/03 02:22:48;;;;;;;6.10;2.97;;;4.00;100.00;;;;;;5084935;28;20043;-73
2024/04/03 02:25:14;;;;;;;12.57;3.40;;;4.10;100.00;;;;;;5066088;28;20048;-73
2024/04/03 02:27:40;;;;;;;8.18;3.60;;;4.10;100.00;;;;;;5086050;28;20060;-73
2024/04/03 02:30:07;;;;;;;10.15;3.60;;;4.10;100.00;;;;;;5066858;28;20127;-74
2024/04/03 02:32:33;;;;;;;7.70;3.25;;;4.10;100.00;;;;;;5070248;28;20048;-73
2024/04/03 02:34:58;;;;;;;8.15;3.78;;;4.10;100.00;;;;;;5082762;28;20072;-73
2024/04/03 02:37:24;;;;;;;8.05;3.17;;;4.00;100.00;;;;;;5067186;28;20043;-73
2024/04/03 02:39:50;;;;;;;6.93;3.10;;;4.10;100.00;;;;;;5068854;28;20159;-73
2024/04/03 02:42:16;;;;;;;7.00;3.58;;;4.10;100.00;;;;;;5086523;28;20060;-73
2024/04/03 02:44:42;;;;;;;7.75;3.78;;;4.10;100.00;;;;;;5068577;28;20075;-73
2024/04/03 02:47:08;;;;;;;5.60;2.75;;;4.10;100.00;;;;;;5083908;28;20052;-73
2024/04/03 02:49:34;;;;;;;6.03;3.25;;;4.10;100.00;;;;;;5067920;28;20071;-73
2024/04/03 02:52:00;;;;;;;7.32;3.47;;;4.10;100.00;;;;;;5093811;27;20052;-73
2024/04/03 02:54:26;;;;;;;6.95;3.53;;;4.10;100.00;;;;;;5080520;28;20040;-73
2024/04/03 02:56:53;;;;;;;5.35;3.10;;;4.10;100.00;;;;;;5083737;28;20052;-73
2024/04/03 02:59:19;;;;;;;8.57;3.50;;;4.10;100.00;;;;;;5083709;28;20059;-73
2024/04/03 03:01:45;;;;;;;7.40;3.28;;;4.10;100.00;;;;;;5079058;28;20060;-73
2024/04/03 03:04:10;;;;;;;7.10;3.50;;;4.00;100.00;;;;;;5065739;28;20056;-73
2024/04/03 03:06:36;;;;;;;9.95;3.50;;;4.00;100.00;;;;;;5061721;28;20048;-72
2024/04/03 03:09:02;;;;;;;6.60;2.97;;;4.10;100.00;;;;;;5084343;27;20117;-73
2024/04/03 03:11:28;;;;;;;7.03;2.83;;;4.10;100.00;;;;;;5073613;28;20440;-73
2024/04/03 03:13:54;;;;;;;3.95;2.22;;;4.00;100.00;;;;;;5082016;28;20117;-73
2024/04/03 03:16:21;;;;;;;4.53;2.40;;;4.00;100.00;;;;;;5082121;28;20136;-73
2024/04/03 03:18:46;;;;;;;3.85;2.30;;;4.00;100.00;;;;;;5067009;28;20060;-73
2024/04/03 03:21:12;;;;;;;2.95;1.90;;;4.00;100.00;;;;;;5078196;28;20048;-73
2024/04/03 03:23:38;;;;;;;6.40;2.00;;;3.90;100.00;;;;;;5110810;27;20507;-73
2024/04/03 03:26:04;;;;;;;4.45;2.13;;;3.90;100.00;;;;;;5084708;28;20063;-73
2024/04/03 03:28:30;;;;;;;3.20;1.90;;;3.90;100.00;;;;;;5081442;28;20492;-73
2024/04/03 03:30:58;;;;;;;3.83;2.03;;;3.90;100.00;;;;;;5081370;28;20040;-73
2024/04/03 03:33:25;;;;;;;3.85;2.08;;;3.80;100.00;;;;;;5081264;28;20044;-73
2024/04/03 03:35:56;;;;;;;3.78;2.17;;;3.80;100.00;;;;;;5064275;28;20055;-73
2024/04/03 03:38:22;;;;;;;5.57;2.15;;;3.80;100.00;;;;;;5081935;28;20052;-73
2024/04/03 03:40:49;;;;;;;5.68;1.80;;;3.80;100.00;;;;;;5064765;28;20503;-73
2024/04/03 03:43:15;;;;;;;4.55;1.60;;;3.70;100.00;;;;;;5064216;28;20048;-73
2024/04/03 03:45:46;;;;;;;2.88;1.75;;;3.70;100.00;;;;;;5066993;28;20500;-73
2024/04/03 03:48:13;;;;;;;3.10;1.80;;;3.70;100.00;;;;;;5064859;28;20082;-74
2024/04/03 03:53:25;;;;;;;3.78;1.92;;;3.60;100.00;;;;;;5085893;28;20063;-73
2024/04/03 03:55:52;;;;;;;4.00;1.55;;;3.60;100.00;;;;;;5069708;28;20628;-73
2024/04/03 03:58:20;;;;;;;1.90;1.17;;;3.60;100.00;;;;;;5065170;28;20048;-73
2024/04/03 04:00:46;;;;;;;2.47;1.50;;;3.60;100.00;;;;;;5069320;28;20452;-74
2024/04/03 04:03:12;;;;;;;2.08;1.25;;;3.50;100.00;;;;;;5062452;28;20052;-73
2024/04/03 04:05:38;;;;;;;2.28;1.17;;;3.40;100.00;;;;;;5083867;28;20388;-73
2024/04/03 04:08:04;;;;;;;2.40;1.23;;;3.40;100.00;;;;;;5067429;28;20056;-73
2024/04/03 04:10:30;;;;;;;2.28;1.15;;;3.40;100.00;;;;;;5082377;28;20054;-73
2024/04/03 04:12:56;;;;;;;3.95;1.20;;;3.40;100.00;;;;;;5084434;28;20044;-73
2024/04/03 04:15:23;;;;;;;2.38;1.20;;;3.40;100.00;;;;;;5082743;28;20044;-73
2024/04/03 04:17:53;;;;;;;2.97;1.35;;;3.40;100.00;;;;;;5084829;28;20048;-73
2024/04/03 04:20:19;;;;;;;7.97;1.50;;;3.40;100.00;;;;;;5084157;28;20063;-74
2024/04/03 04:22:46;;;;;;;2.20;1.48;;;3.40;100.00;;;;;;5082000;28;20117;-73
2024/04/03 04:25:12;;;;;;;2.00;1.35;;;3.40;100.00;;;;;;5080996;28;20048;-74
2024/04/03 04:27:39;;;;;;;2.97;1.30;;;3.40;100.00;;;;;;5064113;28;20052;-73
2024/04/03 04:30:06;;;;;;;4.47;1.60;;;3.40;100.00;;;;;;5060659;28;20049;-73
2024/04/03 04:32:32;;;;;;;5.43;1.52;;;3.40;100.00;;;;;;5052579;28;20630;-72
2024/04/03 04:34:57;;;;;;;3.20;1.30;;;3.40;100.00;;;;;;5057261;28;20055;-73
2024/04/03 04:37:24;;;;;;;3.03;1.70;;;3.40;100.00;;;;;;5066959;28;20059;-72
2024/04/03 04:39:50;;;;;;;2.88;1.52;;;3.40;100.00;;;;;;5077761;28;20048;-73
2024/04/03 04:42:16;;;;;;;5.18;2.60;;;3.40;100.00;;;;;;5082460;28;20120;-73
2024/04/03 04:44:42;;;;;;;3.83;1.73;;;3.50;100.00;;;;;;5081065;28;20066;-74
2024/04/03 04:47:08;;;;;;;3.63;1.73;;;3.50;100.00;;;;;;5079317;28;20138;-72
2024/04/03 04:49:34;;;;;;;8.80;2.00;;;3.40;100.00;;;;;;5080190;28;20176;-72
2024/04/03 04:51:59;;;;;;;4.00;1.90;;;3.50;100.00;;;;;;5083882;28;20058;-72
2024/04/03 04:54:25;;;;;;;4.63;2.25;;;3.50;100.00;;;;;;5066558;28;20401;-72
2024/04/03 04:56:51;;;;;;;5.57;2.10;;;3.40;100.00;;;;;;5100216;27;20495;-71
2024/04/03 04:59:17;;;;;;;4.88;2.10;;;3.40;100.00;;;;;;5067409;28;20044;-71
2024/04/03 05:01:43;;;;;;;3.38;2.22;;;3.50;100.00;;;;;;5080453;28;20056;-73
2024/04/03 05:04:10;;;;;;;5.05;1.70;;;3.50;100.00;;;;;;5064946;28;20060;-73
2024/04/03 05:06:36;;;;;;;3.78;2.30;;;3.40;100.00;;;;;;5081418;28;20048;-74
2024/04/03 05:09:03;;;;;;;6.35;3.78;;;3.40;100.00;;;;;;5064099;28;20052;-74
2024/04/03 05:11:29;;;;;;;9.20;5.53;;;3.40;100.00;;;;;;5080578;28;20516;-74
2024/04/03 05:13:55;;;;;;;6.72;2.78;;;3.40;100.00;;;;;;5074938;28;20045;-74
2024/04/03 05:16:21;;;;;;;6.15;2.60;;;3.40;100.00;;;;;;5081387;28;20689;-73
2024/04/03 05:18:48;;;;;;;5.82;2.40;;;3.30;100.00;;;;;;5062624;28;20049;-73
2024/04/03 05:21:15;;;;;;;9.73;2.08;;;3.30;100.00;;;;;;5081027;28;20044;-73
2024/04/03 05:23:45;;;;;;;7.38;2.15;;;3.30;100.00;;;;;;5080518;28;20055;-74
2024/04/03 05:26:13;;;;;;;6.28;2.65;;;3.30;100.00;;;;;;5082981;28;20056;-74
2024/04/03 05:28:39;;;;;;;6.63;2.15;;;3.30;100.00;;;;;;5062919;28;20052;-74
2024/04/03 05:31:06;;;;;;;5.50;2.08;;;3.40;100.00;;;;;;5073950;28;20055;-74
2024/04/03 05:33:33;;;;;;;7.18;2.17;;;3.30;100.00;;;;;;5074016;28;20101;-74
2024/04/03 05:36:04;;;;;;;13.93;2.20;;;3.30;100.00;;;;;;5063451;28;20048;-74
2024/04/03 05:38:31;;;;;;;4.10;2.35;;;3.40;100.00;;;;;;5058414;28;20048;-73
2024/04/03 05:40:57;;;;;;;3.85;2.03;;;3.40;100.00;;;;;;5078408;28;20048;-74
2024/04/03 05:43:24;;;;;;;9.15;3.50;;;3.50;100.00;;;;;;5061275;28;20048;-74
2024/04/03 05:45:55;;;;;;;3.88;1.83;;;3.50;100.00;;;;;;5078332;28;20335;-74
2024/04/03 05:48:21;;;;;;;4.75;1.85;;;3.60;100.00;;;;;;5063932;28;20052;-73
2024/04/03 05:50:57;;;;;;;7.80;2.35;;;3.60;100.00;;;;;;5085853;28;20050;-73
2024/04/03 05:53:24;;;;;;;4.50;2.17;;;3.80;100.00;;;;;;5089606;28;20056;-73
2024/04/03 05:55:54;;;;;;;4.00;1.85;;;3.90;100.00;;;;;;5066448;28;20073;-75
2024/04/03 05:58:20;;;;;;;6.28;2.30;;;4.00;100.00;;;;;;5086089;28;20102;-74
2024/04/03 06:00:50;;;;;;;3.03;1.77;;;3.90;100.00;;;;;;5066589;28;20077;-75
2024/04/03 06:03:15;;;;;;;6.78;1.92;;;3.90;100.00;;;;;;5080726;28;20110;-74
2024/04/03 06:05:42;;;;;;;4.53;2.13;;;3.90;100.00;;;;;;5081752;28;20052;-75
2024/04/03 06:08:08;;;;;;;3.58;1.80;;;3.90;100.00;;;;;;5072125;28;20048;-74
2024/04/03 06:10:36;;;;;;;5.07;1.88;;;4.00;100.00;;;;;;5076935;28;20117;-74
2024/04/03 06:13:04;;;;;;;5.07;2.30;;;3.90;100.00;;;;;;5078930;28;20055;-74
2024/04/03 06:15:30;;;;;;;5.32;3.25;;;4.00;100.00;;;;;;5071280;28;20040;-75
2024/04/03 06:17:57;;;;;;;4.65;2.60;;;4.10;100.00;;;;;;5083094;28;20055;-75
2024/04/03 06:20:23;;;;;;;5.38;1.67;;;4.20;100.00;;;;;;5080059;28;20055;-74
2024/04/03 06:22:49;;;;;;;5.95;2.92;;;4.30;100.00;;;;;;5082498;28;20047;-75
2024/04/03 06:25:16;;;;;;;3.88;1.80;;;4.30;100.00;;;;;;5066579;28;20052;-74
2024/04/03 06:27:42;;;;;;;6.13;1.92;;;4.40;100.00;;;;;;5064448;28;20770;-75
2024/04/03 06:30:08;;;;;;;3.47;1.70;;;4.40;100.00;;;;;;5080098;28;20055;-73
2024/04/03 06:32:34;;;;;;;3.50;1.48;;;4.50;100.00;;;;;;5076929;28;20075;-73
2024/04/03 06:35:00;;;;;;;5.82;2.00;;;4.50;100.00;;;;;;5078285;28;20048;-73
2024/04/03 06:37:26;;;;;;;3.35;1.50;;;4.50;100.00;;;;;;5078572;28;20045;-73
2024/04/03 06:39:52;;;;;;;3.78;1.27;;;4.60;100.00;;;;;;5082162;28;20109;-74
2024/04/03 06:42:17;;;;;;;5.40;2.40;;;4.50;100.00;;;;;;5060899;28;20082;-74
2024/04/03 06:44:43;;;;;;;3.78;2.08;;;4.60;100.00;;;;;;5081242;28;20104;-75
2024/04/03 06:47:09;;;;;;;3.45;1.60;;;4.60;100.00;;;;;;5063014;28;20052;-74
2024/04/03 06:49:35;;;;;;;3.92;2.03;;;4.60;100.00;;;;;;5081979;28;20100;-73
2024/04/03 06:52:01;;;;;;;6.30;1.90;;;4.50;100.00;;;;;;5082150;28;20044;-75
2024/04/03 06:54:27;;;;;;;4.13;1.60;;;4.70;100.00;;;;;;5058933;28;20531;-74
2024/04/03 06:56:53;;;;;;;5.35;3.10;;;4.70;100.00;;;;;;5082242;28;20082;-75
2024/04/03 06:59:19;;;;;;;3.97;1.60;;;4.80;100.00;;;;;;5082150;28;20052;-75
2024/04/03 07:01:45;;;;;;;4.95;1.52;;;4.90;100.00;;;;;;5082198;28;20059;-73
2024/04/03 07:04:10;;;;;;;2.60;1.50;;;5.10;100.00;;;;;;5087720;28;20090;-72
2024/04/03 07:06:37;;;;;;;4.28;1.70;;;5.20;100.00;;;;;;5069708;28;20052;-72
2024/04/03 07:09:04;;;;;;;2.33;1.00;;;5.40;100.00;;;;;;5083966;28;20048;-72
2024/04/03 07:11:31;;;;;;;4.20;1.30;;;5.40;100.00;;;;;;5082172;28;20052;-74
2024/04/03 07:13:57;;;;;;;1.55;0.90;;;5.50;100.00;;;;;;5084877;28;20105;-75
2024/04/03 07:16:24;;;;;;;3.85;1.23;;;5.60;100.00;;;;;;5085263;28;20529;-74
2024/04/03 07:18:57;;;;;;;2.03;1.30;;;5.70;100.00;;;;;;5085488;28;20052;-73
2024/04/03 07:21:23;;;;;;;1.85;1.20;;;5.90;100.00;;;;;;5085275;28;20048;-74
2024/04/03 07:23:50;;;;;;;3.55;1.02;;;6.30;100.00;;;;;;5067502;28;20067;-74
2024/04/03 07:26:19;;;;;;;1.60;0.88;;;6.50;100.00;;;;;;5068382;28;20051;-74
2024/04/03 07:28:45;;;;;;;3.40;1.80;;;6.80;100.00;;;;;;5067081;28;20044;-73
2024/04/03 07:31:11;;;;;;;3.08;1.50;;;6.90;100.00;;;;;;5085331;28;20048;-74
2024/04/03 07:33:37;;;;;;;3.88;2.17;;;6.90;100.00;;;;;;5070453;28;20048;-77
2024/04/03 07:36:03;;;;;;;4.07;1.52;;;7.20;100.00;;;;;;5088645;28;20091;-76
2024/04/03 07:38:30;;;;;;;1.58;0.93;;;7.50;100.00;;;;;;5093606;28;20044;-74
2024/04/03 07:40:57;;;;;;;3.15;1.15;;;7.80;100.00;;;;;;5087537;28;20121;-74
2024/04/03 07:43:23;;;;;;;2.35;1.25;;;7.20;100.00;;;;;;5066348;28;20056;-75
2024/04/03 07:45:59;;;;;;;2.95;1.02;;;7.70;100.00;;;;;;5082575;28;20168;-74
2024/04/03 07:48:25;;;;;;;2.22;0.80;;;8.20;100.00;;;;;;5079635;28;20047;-75
2024/04/03 07:51:00;;;;;;;6.18;1.08;;;8.60;100.00;;;;;;5090047;28;20047;-74
2024/04/03 07:53:27;;;;;;;7.22;1.98;;;8.30;100.00;;;;;;5107425;27;20055;-77
2024/04/03 07:55:53;;;;;;;3.15;1.42;;;8.10;100.00;;;;;;5089070;28;20059;-71
2024/04/03 07:58:19;;;;;;;1.60;1.15;;;7.80;100.00;;;;;;5066939;28;20048;-71
2024/04/03 08:00:45;;;;;;;10.38;2.20;;;7.20;100.00;;;;;;5084919;28;20052;-71
2024/04/03 08:03:11;;;;;;;3.80;1.30;;;7.40;100.00;;;;;;5085768;28;20493;-70
2024/04/03 08:05:37;;;;;;;4.45;1.25;;;7.30;100.00;;;;;;5084783;28;20048;-70
2024/04/03 08:08:04;;;;;;;3.25;2.22;;;7.20;100.00;;;;;;5085793;28;20102;-71
2024/04/03 08:10:30;;;;;;;3.83;1.33;;;6.90;100.00;;;;;;5084718;28;20060;-71
2024/04/03 08:12:55;;;;;;;2.40;1.33;;;6.90;100.00;;;;;;5086013;28;20060;-71
2024/04/03 08:15:21;;;;;;;4.75;1.38;;;7.50;100.00;;;;;;5066794;28;20044;-71
2024/04/03 08:17:47;;;;;;;3.70;1.20;;;8.00;100.00;;;;;;5068866;28;20044;-71
2024/04/03 08:20:13;;;;;;;1.50;0.98;;;8.30;100.00;;;;;;5084575;28;20066;-71
2024/04/03 08:22:39;;;;;;;4.70;1.00;;;8.90;100.00;;;;;;5065403;28;20626;-78
2024/04/03 08:25:05;;;;;;;0.90;0.75;;;9.40;100.00;;;;;;5068578;28;20086;-77
2024/04/03 08:27:33;;;;;;;7.15;1.20;;;9.60;100.00;;;;;;5083503;28;20055;-78
2024/04/03 08:29:59;;;;;;;2.03;1.08;;;9.10;100.00;;;;;;5088079;28;20059;-77
2024/04/03 08:32:24;;;;;;;1.80;1.08;;;9.30;100.00;;;;;;5067197;28;20052;-78
2024/04/03 08:34:54;;;;;;;6.25;1.90;;;9.50;100.00;;;;;;5067887;28;20054;-78
2024/04/03 08:37:20;;;;;;;2.35;0.90;;;9.60;100.00;;;;;;5082482;28;20044;-78
2024/04/03 08:39:55;;;;;;;1.52;1.00;;;9.90;100.00;;;;;;5084652;28;20059;-78
2024/04/03 08:42:21;;;;;;;3.58;1.10;;;9.40;100.00;;;;;;5082906;28;20067;-78
2024/04/03 08:44:47;;;;;;;4.28;1.05;;;8.80;100.00;;;;;;5066617;28;20052;-78
2024/04/03 08:47:13;;;;;;;1.45;1.10;;;8.50;100.00;;;;;;5067859;28;20436;-78
2024/04/03 08:49:40;;;;;;;2.30;1.10;;;8.20;100.00;;;;;;5070689;28;20076;-77
2024/04/03 08:52:07;;;;;;;3.72;1.17;;;8.80;100.00;;;;;;5086993;28;20067;-78
2024/04/03 08:54:34;;;;;;;9.55;5.35;;;9.30;100.00;;;;;;5064223;28;20504;-78
2024/04/03 08:57:05;;;;;;;3.33;1.63;;;9.80;100.00;;;;;;5082482;28;20116;-78
2024/04/03 08:59:33;;;;;;;3.90;1.40;;;10.20;100.00;;;;;;5083857;28;20055;-78
2024/04/03 09:01:59;;;;;;;1.27;1.00;;;11.10;100.00;;;;;;5066311;28;20046;-78
2024/04/03 09:04:25;;;;;;;1.15;0.73;;;12.20;100.00;;;;;;5083357;28;20059;-78
2024/04/03 09:06:51;;;;;;;2.25;1.40;;;12.20;100.00;;;;;;5081837;28;20052;-78
2024/04/03 09:09:21;;;;;;;2.13;1.10;;;11.90;100.00;;;;;;5082381;28;20044;-77
2024/04/03 09:11:50;;;;;;;3.75;1.30;;;10.90;100.00;;;;;;5083531;28;20060;-78
2024/04/03 09:14:23;;;;;;;4.93;1.50;;;10.00;100.00;;;;;;5083750;28;20492;-77
2024/04/03 09:16:49;;;;;;;4.75;1.48;;;9.70;100.00;;;;;;5085022;28;20048;-78
2024/04/03 09:19:15;;;;;;;1.70;1.00;;;9.80;100.00;;;;;;5083540;28;20047;-78
2024/04/03 09:21:43;;;;;;;5.38;1.95;;;9.60;100.00;;;;;;5067310;28;20047;-78
2024/04/03 09:24:09;;;;;;;4.03;1.48;;;9.60;100.00;;;;;;5084071;28;20052;-78
2024/04/03 09:26:43;;;;;;;7.55;1.80;;;9.90;100.00;;;;;;5082774;28;20083;-78
2024/04/03 09:29:11;;;;;;;31.17;7.18;;;10.60;100.00;;;;;;5082508;28;20067;-78
2024/04/03 09:31:37;;;;;;;3.65;1.60;;;11.40;100.00;;;;;;5066161;28;20778;-78
2024/04/03 09:34:04;;;;;;;5.25;2.55;;;12.20;100.00;;;;;;5065812;28;20137;-78
2024/04/03 09:36:30;;;;;;;4.85;1.95;;;12.80;100.00;;;;;;5085071;28;20051;-78
2024/04/03 09:38:56;;;;;;;7.38;1.75;;;13.10;100.00;;;;;;5068502;28;20051;-78
2024/04/03 09:41:23;;;;;;;3.40;1.50;;;13.80;100.00;;;;;;5065719;28;20573;-76
2024/04/03 09:43:53;;;;;;;4.13;1.40;;;13.10;100.00;;;;;;5077533;28;20150;-78
2024/04/03 09:46:22;;;;;;;4.18;1.67;;;13.20;100.00;;;;;;5082540;28;20044;-77
2024/04/03 09:48:50;;;;;;;1.70;1.20;;;13.60;100.00;;;;;;5082728;28;20087;-77
2024/04/03 09:51:17;;;;;;;5.32;1.35;;;13.60;100.00;;;;;;5082875;28;20055;-76
2024/04/03 09:53:44;;;;;;;1.63;1.10;;;13.00;100.00;;;;;;5082618;28;20048;-76
2024/04/03 09:56:15;;;;;;;2.83;1.33;;;13.10;100.00;;;;;;5067023;28;20051;-76
2024/04/03 09:58:41;;;;;;;2.88;1.45;;;13.20;100.00;;;;;;5065666;28;20052;-77
2024/04/03 10:01:08;;;;;;;5.72;1.67;;;13.30;100.00;;;;;;5081669;28;20051;-76
2024/04/03 10:03:34;;;;;;;1.35;1.10;;;14.00;100.00;;;;;;5082547;28;20066;-77
2024/04/03 10:06:09;;;;;;;8.00;1.60;;;14.40;100.00;;;;;;5065431;28;20086;-76
2024/04/03 10:08:45;;;;;;;2.40;1.45;;;14.30;100.00;;;;;;5066043;28;20105;-76
2024/04/03 10:11:17;;;;;;;4.00;1.50;;;14.50;100.00;;;;;;5065456;28;20059;-77
2024/04/03 10:13:44;;;;;;;4.85;1.50;;;14.50;100.00;;;;;;5082611;28;20052;-77
2024/04/03 10:16:12;;;;;;;4.40;2.10;;;14.00;100.00;;;;;;5081753;28;20062;-77
2024/04/03 10:18:40;;;;;;;4.47;1.88;;;14.20;100.00;;;;;;5081883;28;20059;-77
2024/04/03 10:21:13;;;;;;;1.90;1.52;;;14.50;100.00;;;;;;5082783;28;20082;-77
2024/04/03 10:23:51;;;;;;;2.72;1.58;;;14.50;100.00;;;;;;5065060;28;20055;-77
2024/04/03 10:26:20;;;;;;;2.15;1.33;;;13.90;100.00;;;;;;5066574;28;20066;-77
2024/04/03 10:28:47;;;;;;;1.95;1.40;;;13.00;100.00;;;;;;5083115;28;20048;-77
2024/04/03 10:31:20;;;;;;;5.25;1.50;;;12.50;100.00;;;;;;5067263;28;20040;-77
2024/04/03 10:33:50;;;;;;;4.20;2.03;;;12.30;100.00;;;;;;5063780;28;20071;-77
2024/04/03 10:36:16;;;;;;;2.45;1.63;;;12.70;100.00;;;;;;5063770;28;20047;-76
2024/04/03 10:38:43;;;;;;;2.28;1.55;;;13.00;100.00;;;;;;5082751;28;20048;-76
2024/04/03 10:41:09;;;;;;;5.22;1.90;;;12.70;100.00;;;;;;5085790;28;20055;-76
2024/04/03 10:43:35;;;;;;;2.03;1.50;;;12.80;100.00;;;;;;5086849;28;20142;-76
2024/04/03 10:46:02;;;;;;;5.18;1.67;;;12.80;100.00;;;;;;5086258;28;20052;-77
2024/04/03 10:48:29;;;;;;;2.13;1.50;;;13.20;100.00;;;;;;5069919;28;20082;-76
2024/04/03 10:50:56;;;;;;;2.53;1.70;;;13.60;100.00;;;;;;5085972;28;20037;-77
2024/04/03 10:53:22;;;;;;;3.08;1.30;;;14.10;100.00;;;;;;5087100;28;20141;-76
2024/04/03 10:55:49;;;;;;;1.90;1.42;;;13.40;100.00;;;;;;5084852;28;20044;-77
2024/04/03 10:58:16;;;;;;;3.53;1.70;;;13.60;100.00;;;;;;5070248;28;20048;-77
2024/04/03 11:00:43;;;;;;;4.95;1.70;;;14.30;100.00;;;;;;5069321;28;20044;-77
2024/04/03 11:03:10;;;;;;;2.40;1.80;;;14.70;100.00;;;;;;5071267;28;20051;-76
2024/04/03 11:05:37;;;;;;;3.97;1.90;;;14.70;98.00;;;;;;5085232;28;20056;-77
2024/04/03 11:08:05;;;;;;;3.38;1.60;;;14.40;89.80;;;;;;5069120;28;20056;-77
2024/04/03 11:10:32;;;;;;;4.70;1.80;;;13.90;90.30;;;;;;5084850;28;20044;-76
2024/04/03 11:13:11;;;;;;;2.88;1.70;;;13.80;97.00;;;;;;5066968;28;20048;-77
2024/04/03 11:15:38;;;;;;;3.42;1.77;;;14.10;97.40;;;;;;5066727;28;20052;-76
2024/04/03 11:18:05;;;;;;;2.63;1.52;;;14.40;92.40;;;;;;5066397;28;20056;-77
2024/04/03 11:20:32;;;;;;;2.47;1.92;;;14.20;88.30;;;;;;5098957;27;20063;-76
2024/04/03 11:22:59;;;;;;;3.53;1.95;;;14.20;92.40;;;;;;5069135;28;20044;-76
2024/04/03 11:25:25;;;;;;;2.78;1.77;;;14.30;94.90;;;;;;5083188;28;20071;-76
2024/04/03 11:27:56;;;;;;;2.55;2.00;;;15.10;89.60;;;;;;5085253;28;20048;-76
2024/04/03 11:30:23;;;;;;;2.13;1.55;;;15.70;87.80;;;;;;5069078;28;20105;-77
2024/04/03 11:32:53;;;;;;;4.80;1.65;;;15.30;85.60;;;;;;5064594;28;20051;-77
2024/04/03 11:35:19;;;;;;;2.53;1.80;;;15.30;85.00;;;;;;5088120;28;20063;-77
2024/04/03 11:37:45;;;;;;;5.10;2.05;;;15.10;82.70;;;;;;5086175;28;20093;-77
2024/04/03 11:40:11;;;;;;;2.67;1.55;;;16.00;82.90;;;;;;5084872;28;20052;-77
2024/04/03 11:42:37;;;;;;;2.45;1.42;;;16.80;77.10;;;;;;5068125;28;20060;-76
2024/04/03 11:45:06;;;;;;;9.98;2.97;;;16.90;77.50;;;;;;5067342;28;20063;-76
2024/04/03 11:47:33;;;;;;;5.53;1.90;;;17.20;75.70;;;;;;5083590;28;20662;-76
2024/04/03 11:50:03;;;;;;;3.08;1.52;;;17.50;75.50;;;;;;5085092;28;20048;-76
2024/04/03 11:52:30;;;;;;;1.60;1.30;;;17.60;73.40;;;;;;5078491;28;20516;-76
2024/04/03 11:54:56;;;;;;;3.22;1.92;;;18.00;69.10;;;;;;5068355;28;20065;-76
2024/04/03 11:57:22;;;;;;;6.55;1.90;;;17.30;58.20;;;;;;5085725;28;20048;-76
2024/04/03 11:59:49;;;;;;;2.55;1.90;;;17.40;60.30;;;;;;5086888;28;20051;-76
2024/04/03 12:02:15;;;;;;;2.70;1.60;;;17.70;58.30;;;;;;5086076;28;20793;-78
2024/04/03 12:04:44;;;;;;;2.80;1.60;;;17.20;60.10;;;;;;5079201;28;20140;-77
2024/04/03 12:07:12;;;;;;;7.85;1.95;;;17.20;58.60;;;;;;5081406;28;20063;-78
2024/04/03 12:09:44;;;;;;;2.20;1.48;;;17.30;58.90;;;;;;5082611;28;20096;-77
2024/04/03 12:12:10;;;;;;;8.20;2.20;;;17.10;57.50;;;;;;5065335;28;20048;-77
2024/04/03 12:14:36;;;;;;;6.50;1.92;;;17.20;57.80;;;;;;5063068;28;20044;-77
2024/04/03 12:17:05;;;;;;;28.83;4.47;;;16.80;59.90;;;;;;5083154;28;20055;-77
2024/04/03 12:22:05;;;;;;;4.63;1.52;;;16.80;56.80;;;;;;5083497;28;20066;-78
2024/04/03 12:24:32;;;;;;;3.95;1.58;;;16.90;56.00;;;;;;5080039;28;20102;-78
2024/04/03 12:26:58;;;;;;;3.15;1.77;;;17.00;55.90;;;;;;5084140;28;20051;-77
2024/04/03 12:29:24;;;;;;;44.67;6.32;;;16.90;56.60;;;;;;5079035;28;20443;-78
2024/04/03 12:31:51;;;;;;;2.30;1.55;;;17.10;57.60;;;;;;5067585;28;20055;-78
2024/04/03 12:34:18;;;;;;;5.03;1.70;;;16.70;58.00;;;;;;5080655;28;20052;-78
2024/04/03 12:36:46;;;;;;;42.42;5.55;;;16.50;57.70;;;;;;5081894;28;20622;-78
2024/04/03 12:39:13;;;;;;;3.90;1.63;;;16.30;56.90;;;;;;5060179;28;20051;-77
2024/04/03 12:41:39;;;;;;;5.18;1.40;;;15.90;57.40;;;;;;5065351;28;20043;-76
2024/04/03 12:44:08;;;;;;;1.85;1.50;;;15.40;58.60;;;;;;5062917;28;21064;-77
2024/04/03 12:46:34;;;;;;;2.75;1.60;;;15.00;61.10;;;;;;5073432;28;20086;-76
2024/04/03 12:49:00;;;;;;;8.65;1.38;;;14.80;61.80;;;;;;5076267;28;20063;-77